Terminal Aerodrome Forecast
Issued by NWS

Home | Current Version | Previous Version | Graphics & Text | Print | Product List | Glossary On
Versions: 1 2 3 4 5 6 7 8 9 10 11 12 13
625
FTUS43 KOAX 241720
TAFCDR
TAF
KCDR 241720Z 2418/2518 25017G25KT P6SM SCT060
     FM241900 30019G30KT P6SM BKN080
     FM250100 28017KT P6SM BKN080
     FM251700 31018G27KT P6SM FEW200=

USA.gov is the U.S. government's official web portal to all federal, state and local government web resources and services.